sensor_id;sensor_type;location;lat;lon;timestamp;P1;durP1;ratioP1;P2;durP2;ratioP2
20185;SDS011;10252;48.792;8.582;2023-08-21T00:00:52;10.57;;;9.32;;
20185;SDS011;10252;48.792;8.582;2023-08-21T00:05:54;11.23;;;9.52;;
20185;SDS011;10252;48.792;8.582;2023-08-21T00:10:55;11.85;;;10.20;;
20185;SDS011;10252;48.792;8.582;2023-08-21T00:15:57;11.52;;;9.35;;
20185;SDS011;10252;48.792;8.582;2023-08-21T00:20:58;10.93;;;9.65;;
20185;SDS011;10252;48.792;8.582;2023-08-21T00:25:59;10.95;;;9.60;;
20185;SDS011;10252;48.792;8.582;2023-08-21T00:31:04;14.15;;;10.07;;
20185;SDS011;10252;48.792;8.582;2023-08-21T00:36:05;11.38;;;9.63;;
20185;SDS011;10252;48.792;8.582;2023-08-21T00:41:06;13.13;;;10.20;;
20185;SDS011;10252;48.792;8.582;2023-08-21T00:46:08;10.65;;;9.35;;
20185;SDS011;10252;48.792;8.582;2023-08-21T00:51:09;12.45;;;10.43;;
20185;SDS011;10252;48.792;8.582;2023-08-21T00:56:13;13.40;;;9.77;;
20185;SDS011;10252;48.792;8.582;2023-08-21T01:01:14;12.35;;;10.77;;
20185;SDS011;10252;48.792;8.582;2023-08-21T01:06:18;11.90;;;10.30;;
20185;SDS011;10252;48.792;8.582;2023-08-21T01:11:25;12.43;;;9.73;;
20185;SDS011;10252;48.792;8.582;2023-08-21T01:16:27;13.88;;;10.73;;
20185;SDS011;10252;48.792;8.582;2023-08-21T01:21:29;12.70;;;10.35;;
20185;SDS011;10252;48.792;8.582;2023-08-21T01:26:30;10.77;;;9.73;;
20185;SDS011;10252;48.792;8.582;2023-08-21T01:31:33;11.45;;;10.20;;
20185;SDS011;10252;48.792;8.582;2023-08-21T01:36:37;13.90;;;9.75;;
20185;SDS011;10252;48.792;8.582;2023-08-21T01:41:41;13.32;;;9.43;;
20185;SDS011;10252;48.792;8.582;2023-08-21T01:46:42;13.27;;;11.43;;
20185;SDS011;10252;48.792;8.582;2023-08-21T01:51:44;11.82;;;9.63;;
20185;SDS011;10252;48.792;8.582;2023-08-21T01:56:45;14.63;;;11.25;;
20185;SDS011;10252;48.792;8.582;2023-08-21T02:01:47;11.48;;;10.25;;
20185;SDS011;10252;48.792;8.582;2023-08-21T02:06:48;10.55;;;9.52;;
20185;SDS011;10252;48.792;8.582;2023-08-21T02:11:49;13.30;;;9.32;;
20185;SDS011;10252;48.792;8.582;2023-08-21T02:16:50;11.52;;;10.15;;
20185;SDS011;10252;48.792;8.582;2023-08-21T02:21:52;11.48;;;9.23;;
20185;SDS011;10252;48.792;8.582;2023-08-21T02:26:53;10.57;;;9.45;;
20185;SDS011;10252;48.792;8.582;2023-08-21T02:31:54;12.05;;;10.18;;
20185;SDS011;10252;48.792;8.582;2023-08-21T02:36:56;11.55;;;10.05;;
20185;SDS011;10252;48.792;8.582;2023-08-21T02:42:00;11.25;;;10.10;;
20185;SDS011;10252;48.792;8.582;2023-08-21T02:47:02;12.80;;;10.75;;
20185;SDS011;10252;48.792;8.582;2023-08-21T02:52:04;12.82;;;10.48;;
20185;SDS011;10252;48.792;8.582;2023-08-21T02:57:05;11.48;;;10.00;;
20185;SDS011;10252;48.792;8.582;2023-08-21T03:02:07;11.43;;;9.52;;
20185;SDS011;10252;48.792;8.582;2023-08-21T03:07:09;12.48;;;10.00;;
20185;SDS011;10252;48.792;8.582;2023-08-21T03:12:11;14.40;;;9.63;;
20185;SDS011;10252;48.792;8.582;2023-08-21T03:17:12;10.50;;;9.45;;
20185;SDS011;10252;48.792;8.582;2023-08-21T03:22:14;12.07;;;10.02;;
20185;SDS011;10252;48.792;8.582;2023-08-21T03:27:16;11.55;;;9.88;;
20185;SDS011;10252;48.792;8.582;2023-08-21T03:32:18;13.32;;;10.10;;
20185;SDS011;10252;48.792;8.582;2023-08-21T03:37:20;12.75;;;10.43;;
20185;SDS011;10252;48.792;8.582;2023-08-21T03:42:21;13.45;;;9.68;;
20185;SDS011;10252;48.792;8.582;2023-08-21T03:47:23;11.98;;;9.57;;
20185;SDS011;10252;48.792;8.582;2023-08-21T03:52:30;11.52;;;9.98;;
20185;SDS011;10252;48.792;8.582;2023-08-21T03:57:32;11.55;;;9.60;;
20185;SDS011;10252;48.792;8.582;2023-08-21T04:02:33;12.43;;;9.55;;
20185;SDS011;10252;48.792;8.582;2023-08-21T04:07:34;10.70;;;9.55;;
20185;SDS011;10252;48.792;8.582;2023-08-21T04:12:35;12.90;;;9.48;;
20185;SDS011;10252;48.792;8.582;2023-08-21T04:17:37;11.35;;;10.15;;
20185;SDS011;10252;48.792;8.582;2023-08-21T04:22:38;14.68;;;10.88;;
20185;SDS011;10252;48.792;8.582;2023-08-21T04:27:40;11.05;;;9.57;;
20185;SDS011;10252;48.792;8.582;2023-08-21T04:32:41;14.60;;;10.25;;
20185;SDS011;10252;48.792;8.582;2023-08-21T04:37:43;11.88;;;10.23;;
20185;SDS011;10252;48.792;8.582;2023-08-21T04:42:46;11.65;;;9.27;;
20185;SDS011;10252;48.792;8.582;2023-08-21T04:47:48;12.23;;;9.48;;
20185;SDS011;10252;48.792;8.582;2023-08-21T04:52:50;12.27;;;10.68;;
20185;SDS011;10252;48.792;8.582;2023-08-21T04:57:51;11.35;;;10.07;;
20185;SDS011;10252;48.792;8.582;2023-08-21T05:02:52;11.77;;;10.57;;
20185;SDS011;10252;48.792;8.582;2023-08-21T05:07:54;12.05;;;9.85;;
20185;SDS011;10252;48.792;8.582;2023-08-21T05:12:57;11.20;;;9.68;;
20185;SDS011;10252;48.792;8.582;2023-08-21T05:17:58;11.27;;;9.93;;
20185;SDS011;10252;48.792;8.582;2023-08-21T05:23:01;11.90;;;9.65;;
20185;SDS011;10252;48.792;8.582;2023-08-21T05:28:06;11.35;;;10.07;;
20185;SDS011;10252;48.792;8.582;2023-08-21T05:33:07;12.43;;;9.68;;
20185;SDS011;10252;48.792;8.582;2023-08-21T05:38:09;10.98;;;9.57;;
20185;SDS011;10252;48.792;8.582;2023-08-21T05:43:11;12.30;;;9.05;;
20185;SDS011;10252;48.792;8.582;2023-08-21T05:48:16;10.10;;;8.98;;
20185;SDS011;10252;48.792;8.582;2023-08-21T05:53:18;9.70;;;8.60;;
20185;SDS011;10252;48.792;8.582;2023-08-21T05:58:19;11.50;;;8.77;;
20185;SDS011;10252;48.792;8.582;2023-08-21T06:03:21;11.00;;;8.73;;
20185;SDS011;10252;48.792;8.582;2023-08-21T06:08:35;10.73;;;8.23;;
20185;SDS011;10252;48.792;8.582;2023-08-21T06:13:37;10.80;;;8.60;;
20185;SDS011;10252;48.792;8.582;2023-08-21T06:18:39;11.40;;;8.45;;
20185;SDS011;10252;48.792;8.582;2023-08-21T06:23:40;11.35;;;8.98;;
20185;SDS011;10252;48.792;8.582;2023-08-21T06:28:41;10.82;;;8.75;;
20185;SDS011;10252;48.792;8.582;2023-08-21T06:33:43;11.35;;;9.02;;
20185;SDS011;10252;48.792;8.582;2023-08-21T06:38:45;9.95;;;8.93;;
20185;SDS011;10252;48.792;8.582;2023-08-21T06:43:46;12.98;;;8.43;;
20185;SDS011;10252;48.792;8.582;2023-08-21T06:48:51;9.30;;;8.38;;
20185;SDS011;10252;48.792;8.582;2023-08-21T06:53:52;10.63;;;8.90;;
20185;SDS011;10252;48.792;8.582;2023-08-21T06:58:54;9.35;;;8.45;;
20185;SDS011;10252;48.792;8.582;2023-08-21T07:03:55;10.57;;;8.27;;
20185;SDS011;10252;48.792;8.582;2023-08-21T07:08:56;10.35;;;7.70;;
20185;SDS011;10252;48.792;8.582;2023-08-21T07:13:58;8.45;;;7.47;;
20185;SDS011;10252;48.792;8.582;2023-08-21T07:18:59;7.65;;;6.82;;
20185;SDS011;10252;48.792;8.582;2023-08-21T07:24:02;7.07;;;6.30;;
20185;SDS011;10252;48.792;8.582;2023-08-21T07:29:05;6.78;;;6.07;;
20185;SDS011;10252;48.792;8.582;2023-08-21T07:34:08;8.15;;;6.40;;
20185;SDS011;10252;48.792;8.582;2023-08-21T07:39:09;8.05;;;5.80;;
20185;SDS011;10252;48.792;8.582;2023-08-21T07:44:11;7.57;;;6.78;;
20185;SDS011;10252;48.792;8.582;2023-08-21T07:49:12;6.10;;;5.50;;
20185;SDS011;10252;48.792;8.582;2023-08-21T07:54:13;7.97;;;6.00;;
20185;SDS011;10252;48.792;8.582;2023-08-21T07:59:15;6.18;;;5.68;;
20185;SDS011;10252;48.792;8.582;2023-08-21T08:04:16;6.90;;;6.22;;
20185;SDS011;10252;48.792;8.582;2023-08-21T08:09:17;6.60;;;6.00;;
20185;SDS011;10252;48.792;8.582;2023-08-21T08:14:19;6.40;;;5.80;;
20185;SDS011;10252;48.792;8.582;2023-08-21T08:19:20;6.18;;;5.57;;
20185;SDS011;10252;48.792;8.582;2023-08-21T08:24:21;7.72;;;5.88;;
20185;SDS011;10252;48.792;8.582;2023-08-21T08:29:23;6.10;;;5.60;;
20185;SDS011;10252;48.792;8.582;2023-08-21T08:34:24;6.00;;;5.47;;
20185;SDS011;10252;48.792;8.582;2023-08-21T08:39:25;5.93;;;5.50;;
20185;SDS011;10252;48.792;8.582;2023-08-21T08:44:27;6.13;;;5.53;;
20185;SDS011;10252;48.792;8.582;2023-08-21T08:49:28;5.60;;;5.10;;
20185;SDS011;10252;48.792;8.582;2023-08-21T08:54:31;6.53;;;5.70;;
20185;SDS011;10252;48.792;8.582;2023-08-21T08:59:33;6.30;;;5.22;;
20185;SDS011;10252;48.792;8.582;2023-08-21T09:04:35;9.75;;;5.47;;
20185;SDS011;10252;48.792;8.582;2023-08-21T09:09:46;6.85;;;6.10;;
20185;SDS011;10252;48.792;8.582;2023-08-21T09:14:48;5.72;;;5.22;;
20185;SDS011;10252;48.792;8.582;2023-08-21T09:19:50;6.22;;;5.35;;
20185;SDS011;10252;48.792;8.582;2023-08-21T09:25:01;6.32;;;5.75;;
20185;SDS011;10252;48.792;8.582;2023-08-21T09:30:10;9.30;;;6.13;;
20185;SDS011;10252;48.792;8.582;2023-08-21T09:35:15;6.63;;;5.95;;
20185;SDS011;10252;48.792;8.582;2023-08-21T09:40:16;6.90;;;6.03;;
20185;SDS011;10252;48.792;8.582;2023-08-21T09:45:24;6.95;;;6.22;;
20185;SDS011;10252;48.792;8.582;2023-08-21T09:50:26;6.82;;;6.03;;
20185;SDS011;10252;48.792;8.582;2023-08-21T09:55:30;8.45;;;6.30;;
20185;SDS011;10252;48.792;8.582;2023-08-21T10:00:38;9.68;;;6.18;;
20185;SDS011;10252;48.792;8.582;2023-08-21T10:05:39;8.65;;;6.55;;
20185;SDS011;10252;48.792;8.582;2023-08-21T10:10:41;7.90;;;6.45;;
20185;SDS011;10252;48.792;8.582;2023-08-21T10:15:44;6.85;;;6.15;;
20185;SDS011;10252;48.792;8.582;2023-08-21T10:20:45;8.68;;;6.82;;
20185;SDS011;10252;48.792;8.582;2023-08-21T10:25:47;7.10;;;5.60;;
20185;SDS011;10252;48.792;8.582;2023-08-21T10:30:48;8.25;;;6.47;;
20185;SDS011;10252;48.792;8.582;2023-08-21T10:35:49;9.50;;;6.68;;
20185;SDS011;10252;48.792;8.582;2023-08-21T10:41:03;7.78;;;7.00;;
20185;SDS011;10252;48.792;8.582;2023-08-21T10:46:05;8.48;;;6.70;;
20185;SDS011;10252;48.792;8.582;2023-08-21T10:51:07;7.60;;;6.60;;
20185;SDS011;10252;48.792;8.582;2023-08-21T10:56:09;6.70;;;6.10;;
20185;SDS011;10252;48.792;8.582;2023-08-21T11:01:10;9.55;;;5.97;;
20185;SDS011;10252;48.792;8.582;2023-08-21T11:06:18;8.38;;;7.00;;
20185;SDS011;10252;48.792;8.582;2023-08-21T11:11:19;7.00;;;5.97;;
20185;SDS011;10252;48.792;8.582;2023-08-21T11:16:21;7.63;;;6.60;;
20185;SDS011;10252;48.792;8.582;2023-08-21T11:21:22;7.40;;;6.55;;
20185;SDS011;10252;48.792;8.582;2023-08-21T11:26:26;7.15;;;6.07;;
20185;SDS011;10252;48.792;8.582;2023-08-21T11:31:27;6.45;;;5.78;;
20185;SDS011;10252;48.792;8.582;2023-08-21T11:36:29;7.80;;;6.55;;
20185;SDS011;10252;48.792;8.582;2023-08-21T11:41:30;7.03;;;5.80;;
20185;SDS011;10252;48.792;8.582;2023-08-21T11:46:32;10.35;;;6.45;;
20185;SDS011;10252;48.792;8.582;2023-08-21T11:51:37;8.70;;;6.10;;
20185;SDS011;10252;48.792;8.582;2023-08-21T11:56:39;8.45;;;6.43;;
20185;SDS011;10252;48.792;8.582;2023-08-21T12:01:42;7.10;;;6.43;;
20185;SDS011;10252;48.792;8.582;2023-08-21T12:06:47;7.05;;;6.43;;
20185;SDS011;10252;48.792;8.582;2023-08-21T12:11:48;7.80;;;7.00;;
20185;SDS011;10252;48.792;8.582;2023-08-21T12:16:49;7.10;;;6.40;;
20185;SDS011;10252;48.792;8.582;2023-08-21T12:21:50;10.48;;;6.72;;
20185;SDS011;10252;48.792;8.582;2023-08-21T12:26:52;8.00;;;6.50;;
20185;SDS011;10252;48.792;8.582;2023-08-21T12:31:53;7.03;;;6.32;;
20185;SDS011;10252;48.792;8.582;2023-08-21T12:36:54;7.30;;;5.88;;
20185;SDS011;10252;48.792;8.582;2023-08-21T12:41:56;7.60;;;6.85;;
20185;SDS011;10252;48.792;8.582;2023-08-21T12:46:58;7.95;;;5.85;;
20185;SDS011;10252;48.792;8.582;2023-08-21T12:51:59;6.35;;;5.72;;
20185;SDS011;10252;48.792;8.582;2023-08-21T12:57:00;7.13;;;6.43;;
20185;SDS011;10252;48.792;8.582;2023-08-21T13:02:01;7.90;;;6.80;;
20185;SDS011;10252;48.792;8.582;2023-08-21T13:07:04;6.70;;;6.03;;
20185;SDS011;10252;48.792;8.582;2023-08-21T13:12:05;10.02;;;7.05;;
20185;SDS011;10252;48.792;8.582;2023-08-21T13:17:08;6.47;;;5.88;;
20185;SDS011;10252;48.792;8.582;2023-08-21T13:22:11;10.75;;;6.88;;
20185;SDS011;10252;48.792;8.582;2023-08-21T13:27:12;7.07;;;6.50;;
20185;SDS011;10252;48.792;8.582;2023-08-21T13:32:14;7.85;;;6.15;;
20185;SDS011;10252;48.792;8.582;2023-08-21T13:37:15;6.97;;;6.38;;
20185;SDS011;10252;48.792;8.582;2023-08-21T13:42:16;8.60;;;6.15;;
20185;SDS011;10252;48.792;8.582;2023-08-21T13:47:18;8.13;;;6.47;;
20185;SDS011;10252;48.792;8.582;2023-08-21T13:52:19;7.70;;;6.20;;
20185;SDS011;10252;48.792;8.582;2023-08-21T13:57:21;8.55;;;6.43;;
20185;SDS011;10252;48.792;8.582;2023-08-21T14:02:22;8.30;;;6.65;;
20185;SDS011;10252;48.792;8.582;2023-08-21T14:07:23;11.77;;;7.13;;
20185;SDS011;10252;48.792;8.582;2023-08-21T14:12:24;8.18;;;7.10;;
20185;SDS011;10252;48.792;8.582;2023-08-21T14:17:26;6.63;;;6.03;;
20185;SDS011;10252;48.792;8.582;2023-08-21T14:22:28;8.95;;;6.75;;
20185;SDS011;10252;48.792;8.582;2023-08-21T14:27:29;6.50;;;5.97;;
20185;SDS011;10252;48.792;8.582;2023-08-21T14:32:30;6.82;;;6.10;;
20185;SDS011;10252;48.792;8.582;2023-08-21T14:37:32;8.00;;;6.55;;
20185;SDS011;10252;48.792;8.582;2023-08-21T14:42:33;8.15;;;6.78;;
20185;SDS011;10252;48.792;8.582;2023-08-21T14:47:35;8.43;;;6.93;;
20185;SDS011;10252;48.792;8.582;2023-08-21T14:52:37;7.88;;;5.93;;
20185;SDS011;10252;48.792;8.582;2023-08-21T14:57:39;8.65;;;6.32;;
20185;SDS011;10252;48.792;8.582;2023-08-21T15:02:40;7.07;;;6.38;;
20185;SDS011;10252;48.792;8.582;2023-08-21T15:07:41;7.60;;;6.75;;
20185;SDS011;10252;48.792;8.582;2023-08-21T15:12:43;8.00;;;6.38;;
20185;SDS011;10252;48.792;8.582;2023-08-21T15:17:44;9.00;;;7.03;;
20185;SDS011;10252;48.792;8.582;2023-08-21T15:22:45;7.13;;;6.43;;
20185;SDS011;10252;48.792;8.582;2023-08-21T15:27:47;10.27;;;7.25;;
20185;SDS011;10252;48.792;8.582;2023-08-21T15:32:48;10.40;;;8.43;;
20185;SDS011;10252;48.792;8.582;2023-08-21T15:37:50;8.13;;;6.63;;
20185;SDS011;10252;48.792;8.582;2023-08-21T15:42:51;7.07;;;6.40;;
20185;SDS011;10252;48.792;8.582;2023-08-21T15:47:53;8.15;;;7.35;;
20185;SDS011;10252;48.792;8.582;2023-08-21T15:52:54;8.02;;;6.85;;
20185;SDS011;10252;48.792;8.582;2023-08-21T15:57:55;8.90;;;7.30;;
20185;SDS011;10252;48.792;8.582;2023-08-21T16:02:56;8.55;;;6.90;;
20185;SDS011;10252;48.792;8.582;2023-08-21T16:07:58;8.60;;;6.78;;
20185;SDS011;10252;48.792;8.582;2023-08-21T16:12:59;7.82;;;6.15;;
20185;SDS011;10252;48.792;8.582;2023-08-21T16:18:00;8.05;;;7.10;;
20185;SDS011;10252;48.792;8.582;2023-08-21T16:23:02;8.93;;;6.65;;
20185;SDS011;10252;48.792;8.582;2023-08-21T16:28:03;7.90;;;6.63;;
20185;SDS011;10252;48.792;8.582;2023-08-21T16:33:04;7.95;;;7.20;;
20185;SDS011;10252;48.792;8.582;2023-08-21T16:38:06;7.53;;;6.82;;
20185;SDS011;10252;48.792;8.582;2023-08-21T16:43:07;9.63;;;7.30;;
20185;SDS011;10252;48.792;8.582;2023-08-21T16:48:09;11.88;;;7.03;;
20185;SDS011;10252;48.792;8.582;2023-08-21T16:53:10;8.10;;;6.47;;
20185;SDS011;10252;48.792;8.582;2023-08-21T16:58:12;7.75;;;6.70;;
20185;SDS011;10252;48.792;8.582;2023-08-21T17:03:15;6.90;;;6.28;;
20185;SDS011;10252;48.792;8.582;2023-08-21T17:08:16;9.00;;;6.07;;
20185;SDS011;10252;48.792;8.582;2023-08-21T17:13:18;8.43;;;6.22;;
20185;SDS011;10252;48.792;8.582;2023-08-21T17:18:19;8.73;;;6.50;;
20185;SDS011;10252;48.792;8.582;2023-08-21T17:23:20;6.53;;;5.72;;
20185;SDS011;10252;48.792;8.582;2023-08-21T17:28:22;7.30;;;6.40;;
20185;SDS011;10252;48.792;8.582;2023-08-21T17:33:24;8.98;;;6.10;;
20185;SDS011;10252;48.792;8.582;2023-08-21T17:38:25;7.18;;;5.53;;
20185;SDS011;10252;48.792;8.582;2023-08-21T17:43:26;10.98;;;5.85;;
20185;SDS011;10252;48.792;8.582;2023-08-21T17:48:28;6.75;;;6.00;;
20185;SDS011;10252;48.792;8.582;2023-08-21T17:53:29;6.53;;;5.93;;
20185;SDS011;10252;48.792;8.582;2023-08-21T17:58:49;8.68;;;5.82;;
20185;SDS011;10252;48.792;8.582;2023-08-21T18:03:51;7.32;;;5.55;;
20185;SDS011;10252;48.792;8.582;2023-08-21T18:08:52;7.45;;;5.20;;
20185;SDS011;10252;48.792;8.582;2023-08-21T18:13:53;7.95;;;6.05;;
20185;SDS011;10252;48.792;8.582;2023-08-21T18:18:55;6.28;;;5.72;;
20185;SDS011;10252;48.792;8.582;2023-08-21T18:23:56;6.93;;;5.90;;
20185;SDS011;10252;48.792;8.582;2023-08-21T18:28:57;14.80;;;6.15;;
20185;SDS011;10252;48.792;8.582;2023-08-21T18:34:00;7.75;;;6.93;;
20185;SDS011;10252;48.792;8.582;2023-08-21T18:39:02;9.07;;;6.13;;
20185;SDS011;10252;48.792;8.582;2023-08-21T18:44:04;9.43;;;5.68;;
20185;SDS011;10252;48.792;8.582;2023-08-21T18:49:05;8.63;;;5.45;;
20185;SDS011;10252;48.792;8.582;2023-08-21T18:54:06;10.25;;;6.05;;
20185;SDS011;10252;48.792;8.582;2023-08-21T18:59:07;7.68;;;5.93;;
20185;SDS011;10252;48.792;8.582;2023-08-21T19:04:10;10.43;;;6.28;;
20185;SDS011;10252;48.792;8.582;2023-08-21T19:09:11;8.55;;;6.45;;
20185;SDS011;10252;48.792;8.582;2023-08-21T19:14:13;12.02;;;6.63;;
20185;SDS011;10252;48.792;8.582;2023-08-21T19:19:14;8.85;;;6.65;;
20185;SDS011;10252;48.792;8.582;2023-08-21T19:24:16;7.82;;;6.65;;
20185;SDS011;10252;48.792;8.582;2023-08-21T19:29:17;6.97;;;6.28;;
20185;SDS011;10252;48.792;8.582;2023-08-21T19:34:18;8.05;;;6.78;;
20185;SDS011;10252;48.792;8.582;2023-08-21T19:39:22;8.65;;;6.75;;
20185;SDS011;10252;48.792;8.582;2023-08-21T19:44:24;8.65;;;6.85;;
20185;SDS011;10252;48.792;8.582;2023-08-21T19:49:25;10.75;;;7.63;;
20185;SDS011;10252;48.792;8.582;2023-08-21T19:54:26;9.18;;;7.32;;
20185;SDS011;10252;48.792;8.582;2023-08-21T19:59:28;8.50;;;6.63;;
20185;SDS011;10252;48.792;8.582;2023-08-21T20:04:31;8.40;;;6.10;;
20185;SDS011;10252;48.792;8.582;2023-08-21T20:09:32;8.68;;;7.18;;
20185;SDS011;10252;48.792;8.582;2023-08-21T20:14:33;9.38;;;8.15;;
20185;SDS011;10252;48.792;8.582;2023-08-21T20:19:34;8.73;;;7.30;;
20185;SDS011;10252;48.792;8.582;2023-08-21T20:24:36;10.48;;;7.38;;
20185;SDS011;10252;48.792;8.582;2023-08-21T20:29:37;10.98;;;6.82;;
20185;SDS011;10252;48.792;8.582;2023-08-21T20:34:39;15.10;;;7.22;;
20185;SDS011;10252;48.792;8.582;2023-08-21T20:39:40;9.55;;;7.05;;
20185;SDS011;10252;48.792;8.582;2023-08-21T20:44:42;10.00;;;7.38;;
20185;SDS011;10252;48.792;8.582;2023-08-21T20:49:46;9.90;;;7.65;;
20185;SDS011;10252;48.792;8.582;2023-08-21T20:54:47;11.63;;;7.72;;
20185;SDS011;10252;48.792;8.582;2023-08-21T20:59:48;11.73;;;7.38;;
20185;SDS011;10252;48.792;8.582;2023-08-21T21:04:53;10.23;;;7.85;;
20185;SDS011;10252;48.792;8.582;2023-08-21T21:09:54;9.93;;;8.10;;
20185;SDS011;10252;48.792;8.582;2023-08-21T21:14:55;7.55;;;6.65;;
20185;SDS011;10252;48.792;8.582;2023-08-21T21:19:57;10.45;;;8.45;;
20185;SDS011;10252;48.792;8.582;2023-08-21T21:24:58;9.15;;;8.13;;
20185;SDS011;10252;48.792;8.582;2023-08-21T21:29:59;12.75;;;8.13;;
20185;SDS011;10252;48.792;8.582;2023-08-21T21:35:00;10.90;;;8.10;;
20185;SDS011;10252;48.792;8.582;2023-08-21T21:40:02;10.25;;;8.15;;
20185;SDS011;10252;48.792;8.582;2023-08-21T21:45:07;9.77;;;8.07;;
20185;SDS011;10252;48.792;8.582;2023-08-21T21:50:09;9.90;;;7.97;;
20185;SDS011;10252;48.792;8.582;2023-08-21T21:55:11;13.90;;;8.65;;
20185;SDS011;10252;48.792;8.582;2023-08-21T22:00:12;11.20;;;7.45;;
20185;SDS011;10252;48.792;8.582;2023-08-21T22:05:14;13.43;;;7.55;;
20185;SDS011;10252;48.792;8.582;2023-08-21T22:10:15;9.65;;;7.25;;
20185;SDS011;10252;48.792;8.582;2023-08-21T22:15:16;10.02;;;7.43;;
20185;SDS011;10252;48.792;8.582;2023-08-21T22:20:18;9.45;;;7.57;;
20185;SDS011;10252;48.792;8.582;2023-08-21T22:25:19;9.75;;;8.13;;
20185;SDS011;10252;48.792;8.582;2023-08-21T22:30:20;13.18;;;9.70;;
20185;SDS011;10252;48.792;8.582;2023-08-21T22:35:22;10.45;;;7.65;;
20185;SDS011;10252;48.792;8.582;2023-08-21T22:40:23;11.52;;;7.90;;
20185;SDS011;10252;48.792;8.582;2023-08-21T22:45:28;8.98;;;7.97;;
20185;SDS011;10252;48.792;8.582;2023-08-21T22:50:29;8.95;;;7.82;;
20185;SDS011;10252;48.792;8.582;2023-08-21T22:55:31;10.07;;;7.63;;
20185;SDS011;10252;48.792;8.582;2023-08-21T23:00:35;9.05;;;7.82;;
20185;SDS011;10252;48.792;8.582;2023-08-21T23:05:37;12.65;;;8.00;;
20185;SDS011;10252;48.792;8.582;2023-08-21T23:10:42;10.13;;;8.27;;
20185;SDS011;10252;48.792;8.582;2023-08-21T23:15:47;11.23;;;7.68;;
20185;SDS011;10252;48.792;8.582;2023-08-21T23:20:58;9.90;;;8.00;;
20185;SDS011;10252;48.792;8.582;2023-08-21T23:26:00;9.32;;;8.43;;
20185;SDS011;10252;48.792;8.582;2023-08-21T23:31:01;13.98;;;8.18;;
20185;SDS011;10252;48.792;8.582;2023-08-21T23:36:03;11.77;;;8.63;;
20185;SDS011;10252;48.792;8.582;2023-08-21T23:41:05;11.18;;;8.43;;
20185;SDS011;10252;48.792;8.582;2023-08-21T23:46:06;10.63;;;8.27;;
20185;SDS011;10252;48.792;8.582;2023-08-21T23:51:08;9.95;;;8.13;;
20185;SDS011;10252;48.792;8.582;2023-08-21T23:56:10;11.70;;;9.77;;
